createdAt,value
2022-10-20T00:00:59.368Z,4.30
2022-10-20T00:03:27.556Z,4.30
2022-10-20T00:05:54.813Z,3.92
2022-10-20T00:08:21.681Z,3.85
2022-10-20T00:10:55.597Z,4.50
2022-10-20T00:13:23.712Z,3.85
2022-10-20T00:15:54.683Z,3.75
2022-10-20T00:18:22.767Z,3.88
2022-10-20T00:20:49.695Z,3.67
2022-10-20T00:23:16.484Z,3.88
2022-10-20T00:25:43.208Z,3.30
2022-10-20T00:28:09.970Z,3.55
2022-10-20T00:30:36.967Z,4.05
2022-10-20T00:33:04.611Z,3.88
2022-10-20T00:35:32.552Z,3.75
2022-10-20T00:37:59.332Z,3.65
2022-10-20T00:40:26.503Z,3.75
2022-10-20T00:42:53.209Z,3.50
2022-10-20T00:45:21.476Z,3.63
2022-10-20T00:47:51.795Z,3.58
2022-10-20T00:50:23.968Z,3.40
2022-10-20T00:52:51.952Z,3.50
2022-10-20T00:55:28.008Z,3.17
2022-10-20T00:57:56.639Z,3.35
2022-10-20T01:00:23.977Z,3.13
2022-10-20T01:02:53.241Z,3.50
2022-10-20T01:05:20.168Z,3.05
2022-10-20T01:07:46.896Z,3.50
2022-10-20T01:10:14.413Z,3.45
2022-10-20T01:12:48.189Z,3.50
2022-10-20T01:16:07.761Z,3.17
2022-10-20T01:21:17.276Z,2.90
2022-10-20T01:24:01.236Z,3.20
2022-10-20T01:26:49.248Z,3.03
2022-10-20T01:29:56.539Z,3.10
2022-10-20T01:32:29.956Z,2.75
2022-10-20T01:34:56.650Z,3.30
2022-10-20T01:37:34.378Z,3.03
2022-10-20T01:40:26.784Z,3.17
2022-10-20T01:42:56.253Z,2.63
2022-10-20T01:45:24.463Z,2.70
2022-10-20T01:47:52.168Z,2.95
2022-10-20T01:50:20.108Z,2.70
2022-10-20T01:52:47.082Z,2.85
2022-10-20T01:55:16.471Z,2.80
2022-10-20T01:57:59.266Z,3.00
2022-10-20T02:00:26.015Z,2.70
2022-10-20T02:03:01.252Z,2.80
2022-10-20T02:05:44.807Z,2.58
2022-10-20T02:08:17.510Z,2.53
2022-10-20T02:13:22.738Z,2.63
2022-10-20T02:15:52.989Z,2.70
2022-10-20T02:18:25.887Z,3.10
2022-10-20T02:20:55.313Z,2.90
2022-10-20T02:23:22.113Z,2.88
2022-10-20T02:28:21.984Z,2.47
2022-10-20T02:30:48.880Z,2.55
2022-10-20T02:33:16.990Z,2.47
2022-10-20T02:35:51.448Z,2.25
2022-10-20T02:38:18.221Z,2.45
2022-10-20T02:40:45.124Z,2.47
2022-10-20T02:43:11.981Z,2.35
2022-10-20T02:45:38.936Z,2.55
2022-10-20T02:48:07.616Z,2.40
2022-10-20T02:50:34.880Z,2.15
2022-10-20T02:53:01.772Z,2.40
2022-10-20T02:55:28.536Z,2.10
2022-10-20T02:57:55.384Z,2.47
2022-10-20T03:00:22.423Z,2.20
2022-10-20T03:02:49.170Z,2.05
2022-10-20T03:05:16.356Z,2.08
2022-10-20T03:07:43.055Z,2.13
2022-10-20T03:10:09.780Z,2.30
2022-10-20T03:12:36.464Z,2.10
2022-10-20T03:15:03.533Z,2.13
2022-10-20T03:17:30.224Z,2.03
2022-10-20T03:19:56.930Z,2.00
2022-10-20T03:22:23.626Z,1.80
2022-10-20T03:24:50.408Z,2.15
2022-10-20T03:27:17.165Z,2.20
2022-10-20T03:29:43.954Z,1.90
2022-10-20T03:32:10.725Z,1.85
2022-10-20T03:34:37.411Z,2.17
2022-10-20T03:37:04.147Z,2.10
2022-10-20T03:39:30.892Z,1.80
2022-10-20T03:41:57.917Z,1.90
2022-10-20T03:44:25.135Z,1.90
2022-10-20T03:46:51.869Z,1.90
2022-10-20T03:49:18.640Z,1.83
2022-10-20T03:51:45.435Z,1.90
2022-10-20T03:54:12.132Z,2.00
2022-10-20T03:56:38.817Z,1.83
2022-10-20T03:59:05.580Z,1.75
2022-10-20T04:01:33.027Z,1.83
2022-10-20T04:03:59.828Z,1.70
2022-10-20T04:06:26.539Z,1.98
2022-10-20T04:08:53.368Z,2.10
2022-10-20T04:11:20.258Z,1.85
2022-10-20T04:13:47.039Z,1.70
2022-10-20T04:16:14.012Z,1.63
2022-10-20T04:18:40.837Z,1.90
2022-10-20T04:21:07.656Z,1.77
2022-10-20T04:23:34.494Z,1.77
2022-10-20T04:26:08.195Z,1.80
2022-10-20T04:28:34.888Z,1.70
2022-10-20T04:31:01.680Z,1.80
2022-10-20T04:33:28.372Z,1.90
2022-10-20T04:35:59.738Z,1.65
2022-10-20T04:38:26.644Z,1.52
2022-10-20T04:41:00.369Z,1.73
2022-10-20T04:43:30.581Z,1.90
2022-10-20T04:46:05.306Z,1.50
2022-10-20T04:48:35.075Z,1.48
2022-10-20T04:51:10.064Z,1.52
2022-10-20T04:53:37.248Z,1.70
2022-10-20T04:56:05.026Z,1.50
2022-10-20T04:58:32.193Z,1.67
2022-10-20T05:01:06.990Z,1.90
2022-10-20T05:03:34.820Z,1.60
2022-10-20T05:06:15.610Z,1.67
2022-10-20T05:08:44.157Z,1.52
2022-10-20T05:11:11.413Z,1.83
2022-10-20T05:13:38.651Z,1.80
2022-10-20T05:16:06.178Z,1.95
2022-10-20T05:18:33.393Z,1.80
2022-10-20T05:21:15.025Z,1.88
2022-10-20T05:23:42.882Z,1.73
2022-10-20T05:26:18.466Z,1.77
2022-10-20T05:28:47.875Z,1.67
2022-10-20T05:31:15.591Z,1.50
2022-10-20T05:33:50.622Z,1.90
2022-10-20T05:36:21.591Z,1.60
2022-10-20T05:38:49.044Z,1.70
2022-10-20T05:41:17.725Z,1.50
2022-10-20T05:43:48.955Z,1.60
2022-10-20T05:46:16.264Z,1.60
2022-10-20T05:48:43.272Z,1.45
2022-10-20T05:51:14.922Z,1.48
2022-10-20T05:53:43.221Z,1.60
2022-10-20T05:56:12.737Z,1.40
2022-10-20T05:58:39.676Z,1.60
2022-10-20T06:01:10.334Z,1.60
2022-10-20T06:03:37.502Z,1.80
2022-10-20T06:06:04.444Z,1.42
2022-10-20T06:08:32.318Z,1.70
2022-10-20T06:11:07.042Z,1.80
2022-10-20T06:13:34.316Z,1.58
2022-10-20T06:16:09.864Z,1.77
2022-10-20T06:18:39.880Z,1.70
2022-10-20T06:21:10.036Z,27.55
2022-10-20T06:23:36.739Z,21.60
2022-10-20T06:26:05.049Z,20.75
2022-10-20T06:28:33.501Z,18.75
2022-10-20T06:31:01.036Z,18.13
2022-10-20T06:33:30.135Z,15.90
2022-10-20T06:36:03.312Z,13.90
2022-10-20T06:40:57.028Z,11.30
2022-10-20T06:43:23.703Z,11.13
2022-10-20T06:46:05.264Z,14.65
2022-10-20T06:48:33.535Z,57.97
2022-10-20T06:51:01.952Z,54.15
2022-10-20T06:53:29.595Z,45.78
2022-10-20T06:55:57.520Z,44.83
2022-10-20T06:58:24.669Z,33.67
2022-10-20T07:01:14.707Z,28.27
2022-10-20T07:03:41.915Z,25.13
2022-10-20T07:06:10.716Z,22.67
2022-10-20T07:08:37.584Z,21.17
2022-10-20T07:11:10.681Z,20.23
2022-10-20T07:13:38.771Z,18.70
2022-10-20T07:16:06.747Z,17.38
2022-10-20T07:18:33.823Z,18.13
2022-10-20T07:21:02.799Z,16.95
2022-10-20T07:23:30.915Z,16.73
2022-10-20T07:26:05.124Z,44.47
2022-10-20T07:28:32.631Z,100.40
2022-10-20T07:31:07.023Z,82.20
2022-10-20T07:33:34.507Z,69.45
2022-10-20T07:36:01.558Z,59.78
2022-10-20T07:38:28.292Z,50.13
2022-10-20T07:41:02.686Z,44.25
2022-10-20T07:43:29.569Z,39.17
2022-10-20T07:45:56.417Z,36.58
2022-10-20T07:48:23.100Z,34.55
2022-10-20T07:50:49.810Z,33.88
2022-10-20T07:53:16.480Z,32.95
2022-10-20T07:55:43.195Z,31.58
2022-10-20T07:58:10.220Z,29.17
2022-10-20T08:00:37.028Z,26.77
2022-10-20T08:03:04.269Z,28.58
2022-10-20T08:05:31.056Z,51.67
2022-10-20T08:07:58.204Z,49.33
2022-10-20T08:10:25.164Z,42.38
2022-10-20T08:12:51.859Z,38.50
2022-10-20T08:15:18.591Z,35.00
2022-10-20T08:17:48.036Z,32.83
2022-10-20T08:22:55.564Z,28.10
2022-10-20T08:25:22.485Z,28.15
2022-10-20T08:27:49.260Z,26.83
2022-10-20T08:30:24.329Z,26.52
2022-10-20T08:35:20.927Z,25.17
2022-10-20T08:37:47.804Z,24.10
2022-10-20T08:40:20.917Z,23.25
2022-10-20T08:42:48.453Z,22.70
2022-10-20T08:45:23.387Z,22.48
2022-10-20T08:47:53.859Z,22.33
2022-10-20T08:52:55.788Z,21.38
2022-10-20T08:55:32.928Z,18.50
2022-10-20T08:58:07.889Z,19.00
2022-10-20T09:00:37.994Z,19.55
2022-10-20T09:03:17.793Z,20.25
2022-10-20T09:05:47.228Z,47.63
2022-10-20T09:08:14.069Z,45.95
2022-10-20T09:10:49.493Z,38.95
2022-10-20T09:13:25.958Z,34.40
2022-10-20T09:15:56.513Z,32.08
2022-10-20T09:21:21.403Z,25.15
2022-10-20T09:24:10.614Z,24.10
2022-10-20T09:27:00.071Z,19.35
2022-10-20T09:29:38.244Z,22.75
2022-10-20T09:32:44.982Z,21.27
2022-10-20T09:35:18.839Z,20.50
2022-10-20T09:37:53.016Z,19.33
2022-10-20T09:40:20.271Z,18.95
2022-10-20T09:42:56.333Z,20.00
2022-10-20T09:45:29.204Z,17.88
2022-10-20T09:48:04.020Z,18.08
2022-10-20T09:53:56.255Z,18.58
2022-10-20T09:56:34.103Z,16.98
2022-10-20T09:59:05.521Z,16.95
2022-10-20T10:01:32.294Z,16.35
2022-10-20T10:04:04.980Z,15.73
2022-10-20T10:06:37.705Z,15.82
2022-10-20T10:09:27.681Z,16.50
2022-10-20T10:14:58.477Z,16.38
2022-10-20T10:17:43.823Z,16.33
2022-10-20T10:20:10.521Z,16.13
2022-10-20T10:22:38.260Z,17.92
2022-10-20T10:25:06.584Z,18.30
2022-10-20T10:27:35.619Z,18.00
2022-10-20T10:30:30.059Z,18.77
2022-10-20T10:32:56.893Z,18.67
2022-10-20T10:35:40.740Z,17.73
2022-10-20T10:40:42.319Z,18.27
2022-10-20T10:43:33.711Z,16.42
2022-10-20T10:46:08.024Z,15.73
2022-10-20T10:48:45.632Z,16.42
2022-10-20T10:51:18.185Z,16.52
2022-10-20T10:54:11.820Z,16.48
2022-10-20T10:56:51.321Z,16.50
2022-10-20T10:59:18.059Z,14.85
2022-10-20T11:02:15.882Z,14.38
2022-10-20T11:05:10.455Z,14.13
2022-10-20T11:07:54.821Z,14.45
2022-10-20T11:10:35.601Z,14.00
2022-10-20T11:13:24.437Z,13.60
2022-10-20T11:16:11.188Z,13.07
2022-10-20T11:18:56.360Z,13.10
2022-10-20T11:21:33.992Z,12.50
2022-10-20T11:24:28.651Z,13.43
2022-10-20T11:27:10.355Z,12.13
2022-10-20T11:29:46.058Z,11.80
2022-10-20T11:32:21.989Z,11.45
2022-10-20T11:35:18.950Z,12.27
2022-10-20T11:37:57.121Z,11.52
2022-10-20T11:40:35.435Z,10.98
2022-10-20T11:43:18.392Z,11.30
2022-10-20T11:45:52.557Z,10.50
2022-10-20T11:48:35.111Z,10.73
2022-10-20T11:51:35.449Z,11.07
2022-10-20T11:54:20.788Z,10.63
2022-10-20T11:56:58.897Z,10.00
2022-10-20T11:59:43.643Z,10.20
2022-10-20T12:02:38.352Z,10.48
2022-10-20T12:05:45.732Z,10.50
2022-10-20T12:08:30.551Z,10.32
2022-10-20T12:11:22.864Z,10.30
2022-10-20T12:14:12.061Z,9.57
2022-10-20T12:17:03.384Z,8.77
2022-10-20T12:19:35.083Z,8.48
2022-10-20T12:22:06.385Z,9.23
2022-10-20T12:24:54.621Z,8.50
2022-10-20T12:27:23.396Z,9.23
2022-10-20T12:29:56.363Z,8.77
2022-10-20T12:32:25.406Z,8.77
2022-10-20T12:34:55.772Z,8.73
2022-10-20T12:37:28.632Z,8.00
2022-10-20T12:39:57.372Z,9.15
2022-10-20T12:42:32.231Z,8.23
2022-10-20T12:45:05.269Z,8.55
2022-10-20T12:47:34.665Z,8.13
2022-10-20T12:52:51.116Z,7.68
2022-10-20T12:55:22.022Z,8.20
2022-10-20T12:57:49.269Z,8.85
2022-10-20T13:00:22.392Z,7.53
2022-10-20T13:02:53.550Z,8.45
2022-10-20T13:05:20.244Z,8.57
2022-10-20T13:07:46.950Z,8.20
2022-10-20T13:10:29.113Z,7.57
2022-10-20T13:13:01.888Z,7.72
2022-10-20T13:15:47.510Z,7.72
2022-10-20T13:18:17.823Z,7.38
2022-10-20T13:21:03.083Z,7.35
2022-10-20T13:23:41.502Z,7.70
2022-10-20T13:26:32.293Z,7.32
2022-10-20T13:29:00.654Z,7.35
2022-10-20T13:31:47.905Z,7.00
2022-10-20T13:34:27.053Z,6.88
2022-10-20T13:37:08.281Z,7.05
2022-10-20T13:39:47.269Z,8.07
2022-10-20T13:42:29.133Z,6.82
2022-10-20T13:45:11.844Z,6.35
2022-10-20T13:47:41.483Z,6.60
2022-10-20T13:52:42.989Z,6.60
2022-10-20T13:55:17.165Z,6.60
2022-10-20T13:58:05.181Z,6.53
2022-10-20T14:00:33.247Z,6.50
2022-10-20T14:03:24.725Z,6.38
2022-10-20T14:05:54.411Z,6.68
2022-10-20T14:10:58.584Z,6.72
2022-10-20T14:13:31.576Z,6.47
2022-10-20T14:15:59.615Z,6.00
2022-10-20T14:18:29.184Z,5.90
2022-10-20T14:23:24.529Z,6.45
2022-10-20T14:25:52.303Z,6.38
2022-10-20T14:28:20.191Z,6.05
2022-10-20T14:30:50.773Z,6.00
2022-10-20T14:33:18.320Z,6.15
2022-10-20T14:38:37.907Z,5.93
2022-10-20T14:41:07.066Z,5.45
2022-10-20T14:43:39.030Z,5.72
2022-10-20T14:46:10.845Z,5.30
2022-10-20T14:48:48.417Z,5.80
2022-10-20T14:51:39.620Z,5.50
2022-10-20T14:54:20.519Z,5.30
2022-10-20T14:56:52.620Z,6.05
2022-10-20T14:59:23.183Z,6.07
2022-10-20T15:02:01.694Z,5.38
2022-10-20T15:04:32.122Z,5.55
2022-10-20T15:07:26.885Z,5.63
2022-10-20T15:10:04.174Z,5.40
2022-10-20T15:12:40.288Z,5.20
2022-10-20T15:15:13.233Z,5.70
2022-10-20T15:17:44.588Z,5.47
2022-10-20T15:20:30.347Z,5.07
2022-10-20T15:22:58.824Z,4.57
2022-10-20T15:25:27.558Z,4.97
2022-10-20T15:27:55.859Z,5.50
2022-10-20T15:30:24.686Z,5.13
2022-10-20T15:32:52.031Z,4.90
2022-10-20T15:35:22.387Z,5.50
2022-10-20T15:37:51.095Z,4.50
2022-10-20T15:40:17.964Z,4.67
2022-10-20T15:42:44.752Z,4.40
2022-10-20T15:45:22.439Z,4.93
2022-10-20T15:47:49.174Z,5.07
2022-10-20T15:50:16.325Z,4.88
2022-10-20T15:52:43.144Z,4.35
2022-10-20T15:55:24.207Z,6.03
2022-10-20T15:57:52.172Z,5.75
2022-10-20T16:00:20.282Z,5.03
2022-10-20T16:02:47.621Z,5.28
2022-10-20T16:05:14.404Z,5.15
2022-10-20T16:07:41.091Z,4.50
2022-10-20T16:12:37.854Z,5.43
2022-10-20T16:15:06.532Z,5.38
2022-10-20T16:17:33.498Z,4.55
2022-10-20T16:20:00.202Z,4.55
2022-10-20T16:22:26.895Z,4.20
2022-10-20T16:24:53.657Z,4.00
2022-10-20T16:27:20.399Z,4.05
2022-10-20T16:29:49.725Z,4.45
2022-10-20T16:34:43.361Z,4.40
2022-10-20T16:37:10.050Z,4.25
2022-10-20T16:42:03.811Z,3.90
2022-10-20T16:44:30.801Z,4.30
2022-10-20T16:46:57.999Z,3.25
2022-10-20T16:49:24.803Z,3.70
2022-10-20T16:51:51.879Z,5.10
2022-10-20T16:54:18.582Z,3.83
2022-10-20T16:56:45.708Z,4.25
2022-10-20T16:59:12.561Z,3.83
2022-10-20T17:01:39.343Z,4.15
2022-10-20T17:04:06.048Z,3.80
2022-10-20T17:06:32.783Z,4.32
2022-10-20T17:09:00.004Z,3.20
2022-10-20T17:11:29.387Z,3.42
2022-10-20T17:13:56.972Z,3.80
2022-10-20T17:16:28.631Z,3.75
2022-10-20T17:18:56.527Z,3.75
2022-10-20T17:21:23.329Z,3.22
2022-10-20T17:23:50.069Z,4.10
2022-10-20T17:26:30.164Z,3.63
2022-10-20T17:28:58.980Z,3.30
2022-10-20T17:31:25.979Z,3.15
2022-10-20T17:33:53.120Z,3.50
2022-10-20T17:36:25.773Z,3.17
2022-10-20T17:39:00.906Z,3.33
2022-10-20T17:41:28.092Z,3.00
2022-10-20T17:43:54.832Z,3.20
2022-10-20T17:46:21.713Z,3.25
2022-10-20T17:48:48.523Z,7.82
2022-10-20T17:51:23.008Z,23.45
2022-10-20T17:53:51.441Z,27.33
2022-10-20T17:56:24.505Z,23.35
2022-10-20T17:58:52.125Z,20.38
2022-10-20T18:01:33.337Z,18.55
2022-10-20T18:04:09.708Z,17.35
2022-10-20T18:06:37.021Z,15.45
2022-10-20T18:09:11.997Z,14.13
2022-10-20T18:11:40.677Z,13.63
2022-10-20T18:14:07.453Z,12.43
2022-10-20T18:16:35.387Z,11.15
2022-10-20T18:19:02.320Z,10.30
2022-10-20T18:21:29.948Z,9.38
2022-10-20T18:24:02.368Z,9.07
2022-10-20T18:26:31.556Z,7.70
2022-10-20T18:28:59.328Z,8.20
2022-10-20T18:31:30.315Z,7.43
2022-10-20T18:34:02.673Z,10.02
2022-10-20T18:36:31.118Z,65.65
2022-10-20T18:38:58.593Z,52.72
2022-10-20T18:41:38.152Z,37.55
2022-10-20T18:46:33.838Z,25.95
2022-10-20T18:49:03.434Z,23.15
2022-10-20T18:53:58.693Z,19.10
2022-10-20T18:56:27.484Z,16.88
2022-10-20T18:58:59.395Z,16.42
2022-10-20T19:01:29.461Z,14.73
2022-10-20T19:03:57.659Z,14.98
2022-10-20T19:06:26.588Z,14.30
2022-10-20T19:08:55.229Z,13.13
2022-10-20T19:11:23.854Z,12.07
2022-10-20T19:13:50.891Z,12.30
2022-10-20T19:16:20.187Z,12.02
2022-10-20T19:18:49.732Z,11.27
2022-10-20T19:23:49.999Z,10.80
2022-10-20T19:26:18.464Z,10.80
2022-10-20T19:29:00.496Z,10.15
2022-10-20T19:31:30.293Z,9.65
2022-10-20T19:34:00.412Z,9.65
2022-10-20T19:36:28.578Z,9.77
2022-10-20T19:38:55.709Z,9.55
2022-10-20T19:41:22.999Z,8.93
2022-10-20T19:43:49.845Z,8.90
2022-10-20T19:46:18.623Z,8.30
2022-10-20T19:48:46.228Z,8.32
2022-10-20T19:51:14.086Z,8.13
2022-10-20T19:53:41.084Z,8.43
2022-10-20T19:56:08.451Z,8.57
2022-10-20T19:58:37.886Z,8.15
2022-10-20T20:01:07.342Z,18.92
2022-10-20T20:03:34.425Z,72.32
2022-10-20T20:06:05.589Z,54.38
2022-10-20T20:08:32.959Z,38.75
2022-10-20T20:11:01.224Z,30.63
2022-10-20T20:13:28.312Z,26.88
2022-10-20T20:15:55.034Z,24.00
2022-10-20T20:18:21.916Z,20.70
2022-10-20T20:20:49.386Z,19.73
2022-10-20T20:23:16.452Z,17.85
2022-10-20T20:25:44.758Z,16.80
2022-10-20T20:28:11.705Z,15.38
2022-10-20T20:30:38.906Z,15.13
2022-10-20T20:33:05.711Z,14.80
2022-10-20T20:35:32.395Z,13.98
2022-10-20T20:37:59.078Z,12.88
2022-10-20T20:40:25.847Z,30.15
2022-10-20T20:42:52.701Z,34.08
2022-10-20T20:45:19.509Z,29.73
2022-10-20T20:47:47.908Z,25.38
2022-10-20T20:50:14.664Z,22.02
2022-10-20T20:52:41.463Z,18.98
2022-10-20T20:55:08.423Z,17.85
2022-10-20T20:57:35.355Z,15.98
2022-10-20T21:00:02.873Z,15.40
2022-10-20T21:02:29.684Z,14.32
2022-10-20T21:04:56.455Z,15.35
2022-10-20T21:07:23.167Z,13.75
2022-10-20T21:09:49.952Z,13.18
2022-10-20T21:12:16.656Z,12.80
2022-10-20T21:14:43.431Z,13.45
2022-10-20T21:17:10.156Z,12.63
2022-10-20T21:19:36.941Z,11.63
2022-10-20T21:22:03.893Z,12.20
2022-10-20T21:24:30.589Z,11.57
2022-10-20T21:26:57.422Z,11.10
2022-10-20T21:29:24.357Z,11.57
2022-10-20T21:31:51.075Z,11.10
2022-10-20T21:34:17.787Z,10.95
2022-10-20T21:36:44.473Z,10.70
2022-10-20T21:39:15.716Z,10.63
2022-10-20T21:41:43.660Z,10.82
2022-10-20T21:44:13.004Z,10.45
2022-10-20T21:46:47.577Z,10.15
2022-10-20T21:49:17.296Z,9.25
2022-10-20T21:51:47.968Z,9.80
2022-10-20T21:54:18.050Z,9.63
2022-10-20T21:56:46.809Z,9.93
2022-10-20T21:59:19.144Z,9.40
2022-10-20T22:01:49.682Z,9.20
2022-10-20T22:04:18.209Z,8.77
2022-10-20T22:06:44.967Z,8.52
2022-10-20T22:09:12.923Z,9.27
2022-10-20T22:11:44.755Z,8.85
2022-10-20T22:14:12.075Z,8.88
2022-10-20T22:16:41.115Z,8.18
2022-10-20T22:19:15.664Z,8.77
2022-10-20T22:21:44.787Z,8.27
2022-10-20T22:24:11.692Z,8.68
2022-10-20T22:26:38.851Z,8.02
2022-10-20T22:29:09.607Z,7.80
2022-10-20T22:31:37.720Z,12.95
2022-10-20T22:34:04.513Z,49.40
2022-10-20T22:36:31.276Z,42.05
2022-10-20T22:38:58.156Z,33.30
2022-10-20T22:41:25.042Z,27.40
2022-10-20T22:43:52.046Z,96.25
2022-10-20T22:46:19.200Z,78.13
2022-10-20T22:48:48.951Z,54.17
2022-10-20T22:51:16.128Z,42.72
2022-10-20T22:53:43.463Z,35.42
2022-10-20T22:56:18.806Z,30.05
2022-10-20T22:58:46.083Z,25.80
2022-10-20T23:01:15.451Z,25.23
2022-10-20T23:03:42.608Z,23.55
2022-10-20T23:06:14.708Z,22.75
2022-10-20T23:08:46.484Z,22.63
2022-10-20T23:11:14.147Z,21.60
2022-10-20T23:13:40.983Z,20.63
2022-10-20T23:16:08.065Z,20.60
2022-10-20T23:18:34.871Z,19.17
2022-10-20T23:21:01.718Z,19.42
2022-10-20T23:23:28.690Z,19.10
2022-10-20T23:25:56.283Z,18.67
2022-10-20T23:28:24.392Z,18.42
2022-10-20T23:30:51.158Z,16.85
2022-10-20T23:33:17.943Z,17.05
2022-10-20T23:35:47.060Z,17.10
2022-10-20T23:38:13.760Z,16.67
2022-10-20T23:40:40.458Z,16.45
2022-10-20T23:43:07.165Z,15.23
2022-10-20T23:45:36.939Z,15.52
2022-10-20T23:48:04.798Z,14.38
2022-10-20T23:50:31.608Z,15.13
2022-10-20T23:52:58.318Z,14.00
2022-10-20T23:55:25.132Z,14.13
2022-10-20T23:57:51.960Z,14.18
